Terminal Aerodrome Forecast
Issued by NWS

Current Version | Previous Version | Graphics & Text | Print | Product List | Glossary On
Versions: 1 2 3 4 5 6 7 8 9 10 11 12 13 14 15 16 17 18
000
FTUS41 KPBZ 170501 AAA
TAFMGW
TAF AMD
KMGW 170501Z 1705/1724 00000KT 3SM BR SCT070
      TEMPO 1709/1713 1SM BR
     FM171400 00000KT P6SM SCT025
     FM171600 VRB03KT P6SM BKN050=

USA.gov is the U.S. government's official web portal to all federal, state and local government web resources and services.